sensor_id;sensor_type;location;lat;lon;timestamp;temperature;humidity
2639;DHT22;1329;51.384;7.122;2023-09-12T00:02:05;23.30;1.00
2639;DHT22;1329;51.384;7.122;2023-09-12T00:04:32;23.30;1.00
2639;DHT22;1329;51.384;7.122;2023-09-12T00:07:00;23.20;1.00
2639;DHT22;1329;51.384;7.122;2023-09-12T00:09:27;23.20;1.00
2639;DHT22;1329;51.384;7.122;2023-09-12T00:11:54;23.20;1.00
2639;DHT22;1329;51.384;7.122;2023-09-12T00:14:21;23.10;1.00
2639;DHT22;1329;51.384;7.122;2023-09-12T00:16:48;23.10;1.00
2639;DHT22;1329;51.384;7.122;2023-09-12T00:19:18;23.10;1.00
2639;DHT22;1329;51.384;7.122;2023-09-12T00:21:45;23.10;1.00
2639;DHT22;1329;51.384;7.122;2023-09-12T00:24:13;23.10;1.00
2639;DHT22;1329;51.384;7.122;2023-09-12T00:26:40;23.10;1.00
2639;DHT22;1329;51.384;7.122;2023-09-12T00:29:07;23.00;1.00
2639;DHT22;1329;51.384;7.122;2023-09-12T00:31:34;23.00;1.00
2639;DHT22;1329;51.384;7.122;2023-09-12T00:34:01;23.00;1.00
2639;DHT22;1329;51.384;7.122;2023-09-12T00:36:28;23.00;1.00
2639;DHT22;1329;51.384;7.122;2023-09-12T00:38:55;23.00;1.00
2639;DHT22;1329;51.384;7.122;2023-09-12T00:41:23;22.90;1.00
2639;DHT22;1329;51.384;7.122;2023-09-12T00:43:50;23.00;1.00
2639;DHT22;1329;51.384;7.122;2023-09-12T00:46:19;22.90;1.00
2639;DHT22;1329;51.384;7.122;2023-09-12T00:48:47;22.90;1.00
2639;DHT22;1329;51.384;7.122;2023-09-12T00:51:16;22.90;1.00
2639;DHT22;1329;51.384;7.122;2023-09-12T00:53:43;22.90;1.00
2639;DHT22;1329;51.384;7.122;2023-09-12T00:56:10;22.90;1.00
2639;DHT22;1329;51.384;7.122;2023-09-12T00:58:39;22.90;1.00
2639;DHT22;1329;51.384;7.122;2023-09-12T01:01:09;22.90;1.00
2639;DHT22;1329;51.384;7.122;2023-09-12T01:03:36;22.90;1.00
2639;DHT22;1329;51.384;7.122;2023-09-12T01:06:04;22.90;1.00
2639;DHT22;1329;51.384;7.122;2023-09-12T01:08:32;22.90;1.00
2639;DHT22;1329;51.384;7.122;2023-09-12T01:10:59;22.90;1.00
2639;DHT22;1329;51.384;7.122;2023-09-12T01:13:27;22.90;1.00
2639;DHT22;1329;51.384;7.122;2023-09-12T01:15:55;22.90;1.00
2639;DHT22;1329;51.384;7.122;2023-09-12T01:18:23;22.90;1.00
2639;DHT22;1329;51.384;7.122;2023-09-12T01:21:06;22.90;1.00
2639;DHT22;1329;51.384;7.122;2023-09-12T01:24:13;22.90;1.00
2639;DHT22;1329;51.384;7.122;2023-09-12T01:26:59;23.00;1.00
2639;DHT22;1329;51.384;7.122;2023-09-12T01:29:39;23.00;1.00
2639;DHT22;1329;51.384;7.122;2023-09-12T01:32:07;23.00;1.00
2639;DHT22;1329;51.384;7.122;2023-09-12T01:34:35;23.00;1.00
2639;DHT22;1329;51.384;7.122;2023-09-12T01:37:03;23.00;1.00
2639;DHT22;1329;51.384;7.122;2023-09-12T01:39:29;23.00;1.00
2639;DHT22;1329;51.384;7.122;2023-09-12T01:41:59;23.00;1.00
2639;DHT22;1329;51.384;7.122;2023-09-12T01:44:29;23.00;1.00
2639;DHT22;1329;51.384;7.122;2023-09-12T01:47:00;23.00;1.00
2639;DHT22;1329;51.384;7.122;2023-09-12T01:49:30;22.90;1.00
2639;DHT22;1329;51.384;7.122;2023-09-12T01:51:58;22.90;1.00
2639;DHT22;1329;51.384;7.122;2023-09-12T01:54:26;22.90;1.00
2639;DHT22;1329;51.384;7.122;2023-09-12T01:56:54;22.90;1.00
2639;DHT22;1329;51.384;7.122;2023-09-12T01:59:23;22.90;1.00
2639;DHT22;1329;51.384;7.122;2023-09-12T02:01:51;22.90;1.00
2639;DHT22;1329;51.384;7.122;2023-09-12T02:04:18;22.80;1.00
2639;DHT22;1329;51.384;7.122;2023-09-12T02:06:45;22.80;1.00
2639;DHT22;1329;51.384;7.122;2023-09-12T02:09:12;22.80;1.00
2639;DHT22;1329;51.384;7.122;2023-09-12T02:11:39;22.80;1.00
2639;DHT22;1329;51.384;7.122;2023-09-12T02:14:06;22.70;1.00
2639;DHT22;1329;51.384;7.122;2023-09-12T02:16:35;22.70;1.00
2639;DHT22;1329;51.384;7.122;2023-09-12T02:19:05;22.70;1.00
2639;DHT22;1329;51.384;7.122;2023-09-12T02:21:32;22.70;1.00
2639;DHT22;1329;51.384;7.122;2023-09-12T02:23:59;22.70;1.00
2639;DHT22;1329;51.384;7.122;2023-09-12T02:26:26;22.70;1.00
2639;DHT22;1329;51.384;7.122;2023-09-12T02:28:53;22.70;1.00
2639;DHT22;1329;51.384;7.122;2023-09-12T02:31:20;22.70;1.00
2639;DHT22;1329;51.384;7.122;2023-09-12T02:33:47;22.70;1.00
2639;DHT22;1329;51.384;7.122;2023-09-12T02:36:15;22.70;1.00
2639;DHT22;1329;51.384;7.122;2023-09-12T02:38:42;22.70;1.00
2639;DHT22;1329;51.384;7.122;2023-09-12T02:41:09;22.70;1.00
2639;DHT22;1329;51.384;7.122;2023-09-12T02:43:36;22.70;1.00
2639;DHT22;1329;51.384;7.122;2023-09-12T02:46:03;22.70;1.00
2639;DHT22;1329;51.384;7.122;2023-09-12T02:48:30;22.70;1.00
2639;DHT22;1329;51.384;7.122;2023-09-12T02:50:57;22.70;1.00
2639;DHT22;1329;51.384;7.122;2023-09-12T02:53:25;22.70;1.00
2639;DHT22;1329;51.384;7.122;2023-09-12T02:55:52;22.70;1.00
2639;DHT22;1329;51.384;7.122;2023-09-12T02:58:20;22.70;1.00
2639;DHT22;1329;51.384;7.122;2023-09-12T03:00:47;22.70;1.00
2639;DHT22;1329;51.384;7.122;2023-09-12T03:03:15;22.70;1.00
2639;DHT22;1329;51.384;7.122;2023-09-12T03:05:42;22.60;1.00
2639;DHT22;1329;51.384;7.122;2023-09-12T03:08:09;22.60;1.00
2639;DHT22;1329;51.384;7.122;2023-09-12T03:10:38;22.60;1.00
2639;DHT22;1329;51.384;7.122;2023-09-12T03:13:04;22.60;1.00
2639;DHT22;1329;51.384;7.122;2023-09-12T03:15:36;22.60;1.00
2639;DHT22;1329;51.384;7.122;2023-09-12T03:18:04;22.70;1.00
2639;DHT22;1329;51.384;7.122;2023-09-12T03:20:32;22.60;1.00
2639;DHT22;1329;51.384;7.122;2023-09-12T03:22:58;22.60;1.00
2639;DHT22;1329;51.384;7.122;2023-09-12T03:25:25;22.60;1.00
2639;DHT22;1329;51.384;7.122;2023-09-12T03:27:53;22.60;1.00
2639;DHT22;1329;51.384;7.122;2023-09-12T03:30:20;22.60;1.00
2639;DHT22;1329;51.384;7.122;2023-09-12T03:32:47;22.60;1.00
2639;DHT22;1329;51.384;7.122;2023-09-12T03:35:14;22.60;1.00
2639;DHT22;1329;51.384;7.122;2023-09-12T03:37:41;22.60;1.00
2639;DHT22;1329;51.384;7.122;2023-09-12T03:40:10;22.60;1.00
2639;DHT22;1329;51.384;7.122;2023-09-12T03:42:37;22.60;1.00
2639;DHT22;1329;51.384;7.122;2023-09-12T03:45:07;22.60;1.00
2639;DHT22;1329;51.384;7.122;2023-09-12T03:47:35;22.60;1.00
2639;DHT22;1329;51.384;7.122;2023-09-12T03:50:02;22.60;1.00
2639;DHT22;1329;51.384;7.122;2023-09-12T03:52:29;22.60;1.00
2639;DHT22;1329;51.384;7.122;2023-09-12T03:54:56;22.60;1.00
2639;DHT22;1329;51.384;7.122;2023-09-12T03:57:26;22.60;1.00
2639;DHT22;1329;51.384;7.122;2023-09-12T03:59:55;22.60;1.00
2639;DHT22;1329;51.384;7.122;2023-09-12T04:02:24;22.60;1.00
2639;DHT22;1329;51.384;7.122;2023-09-12T04:04:50;22.50;1.00
2639;DHT22;1329;51.384;7.122;2023-09-12T04:07:18;22.50;1.00
2639;DHT22;1329;51.384;7.122;2023-09-12T04:09:45;22.50;1.00
2639;DHT22;1329;51.384;7.122;2023-09-12T04:12:11;22.50;1.00
2639;DHT22;1329;51.384;7.122;2023-09-12T04:14:38;22.50;1.00
2639;DHT22;1329;51.384;7.122;2023-09-12T04:17:05;22.50;1.00
2639;DHT22;1329;51.384;7.122;2023-09-12T04:19:35;22.50;1.00
2639;DHT22;1329;51.384;7.122;2023-09-12T04:22:02;22.50;1.00
2639;DHT22;1329;51.384;7.122;2023-09-12T04:24:29;22.40;1.00
2639;DHT22;1329;51.384;7.122;2023-09-12T04:26:56;22.40;1.00
2639;DHT22;1329;51.384;7.122;2023-09-12T04:29:23;22.40;1.00
2639;DHT22;1329;51.384;7.122;2023-09-12T04:31:50;22.40;1.00
2639;DHT22;1329;51.384;7.122;2023-09-12T04:34:21;22.40;1.00
2639;DHT22;1329;51.384;7.122;2023-09-12T04:36:49;22.40;1.00
2639;DHT22;1329;51.384;7.122;2023-09-12T04:39:16;22.30;1.00
2639;DHT22;1329;51.384;7.122;2023-09-12T04:41:43;22.30;1.00
2639;DHT22;1329;51.384;7.122;2023-09-12T04:44:11;22.30;1.00
2639;DHT22;1329;51.384;7.122;2023-09-12T04:46:38;22.20;1.00
2639;DHT22;1329;51.384;7.122;2023-09-12T04:49:05;22.30;1.00
2639;DHT22;1329;51.384;7.122;2023-09-12T04:51:31;22.20;1.00
2639;DHT22;1329;51.384;7.122;2023-09-12T04:54:00;22.20;1.00
2639;DHT22;1329;51.384;7.122;2023-09-12T04:56:27;22.20;1.00
2639;DHT22;1329;51.384;7.122;2023-09-12T04:58:53;22.20;1.00
2639;DHT22;1329;51.384;7.122;2023-09-12T05:01:21;22.20;1.00
2639;DHT22;1329;51.384;7.122;2023-09-12T05:03:48;22.30;1.00
2639;DHT22;1329;51.384;7.122;2023-09-12T05:06:15;22.20;1.00
2639;DHT22;1329;51.384;7.122;2023-09-12T05:08:42;22.30;1.00
2639;DHT22;1329;51.384;7.122;2023-09-12T05:11:10;22.30;1.00
2639;DHT22;1329;51.384;7.122;2023-09-12T05:13:37;22.30;1.00
2639;DHT22;1329;51.384;7.122;2023-09-12T05:16:04;22.30;1.00
2639;DHT22;1329;51.384;7.122;2023-09-12T05:18:31;22.30;1.00
2639;DHT22;1329;51.384;7.122;2023-09-12T05:20:58;22.30;1.00
2639;DHT22;1329;51.384;7.122;2023-09-12T05:23:24;22.40;1.00
2639;DHT22;1329;51.384;7.122;2023-09-12T05:25:52;22.30;1.00
2639;DHT22;1329;51.384;7.122;2023-09-12T05:28:20;22.30;1.00
2639;DHT22;1329;51.384;7.122;2023-09-12T05:30:47;22.30;1.00
2639;DHT22;1329;51.384;7.122;2023-09-12T05:33:14;22.30;1.00
2639;DHT22;1329;51.384;7.122;2023-09-12T05:35:41;22.20;1.00
2639;DHT22;1329;51.384;7.122;2023-09-12T05:38:10;22.20;1.00
2639;DHT22;1329;51.384;7.122;2023-09-12T05:40:36;22.10;1.00
2639;DHT22;1329;51.384;7.122;2023-09-12T05:43:03;22.10;1.00
2639;DHT22;1329;51.384;7.122;2023-09-12T05:45:32;22.00;6.90
2639;DHT22;1329;51.384;7.122;2023-09-12T05:47:59;21.90;14.00
2639;DHT22;1329;51.384;7.122;2023-09-12T05:50:26;21.90;16.60
2639;DHT22;1329;51.384;7.122;2023-09-12T05:52:53;21.80;24.40
2639;DHT22;1329;51.384;7.122;2023-09-12T05:55:20;21.80;36.00
2639;DHT22;1329;51.384;7.122;2023-09-12T05:57:48;21.70;45.00
2639;DHT22;1329;51.384;7.122;2023-09-12T06:00:18;21.80;54.90
2639;DHT22;1329;51.384;7.122;2023-09-12T06:02:46;21.70;56.00
2639;DHT22;1329;51.384;7.122;2023-09-12T06:05:14;21.70;61.60
2639;DHT22;1329;51.384;7.122;2023-09-12T06:07:41;21.70;61.20
2639;DHT22;1329;51.384;7.122;2023-09-12T06:10:09;21.70;63.30
2639;DHT22;1329;51.384;7.122;2023-09-12T06:12:36;21.70;66.50
2639;DHT22;1329;51.384;7.122;2023-09-12T06:15:03;21.70;71.30
2639;DHT22;1329;51.384;7.122;2023-09-12T06:17:31;21.80;74.30
2639;DHT22;1329;51.384;7.122;2023-09-12T06:20:00;21.80;78.40
2639;DHT22;1329;51.384;7.122;2023-09-12T06:22:26;21.80;82.40
2639;DHT22;1329;51.384;7.122;2023-09-12T06:24:54;21.80;81.50
2639;DHT22;1329;51.384;7.122;2023-09-12T06:27:21;21.80;80.60
2639;DHT22;1329;51.384;7.122;2023-09-12T06:29:49;21.80;78.50
2639;DHT22;1329;51.384;7.122;2023-09-12T06:32:17;21.80;74.20
2639;DHT22;1329;51.384;7.122;2023-09-12T06:34:44;21.80;70.90
2639;DHT22;1329;51.384;7.122;2023-09-12T06:37:13;21.70;69.90
2639;DHT22;1329;51.384;7.122;2023-09-12T06:39:40;21.70;72.20
2639;DHT22;1329;51.384;7.122;2023-09-12T06:42:08;21.60;73.80
2639;DHT22;1329;51.384;7.122;2023-09-12T06:44:35;21.60;75.50
2639;DHT22;1329;51.384;7.122;2023-09-12T06:47:04;21.50;77.40
2639;DHT22;1329;51.384;7.122;2023-09-12T06:49:31;21.60;80.60
2639;DHT22;1329;51.384;7.122;2023-09-12T06:51:58;21.50;80.90
2639;DHT22;1329;51.384;7.122;2023-09-12T06:54:36;21.50;83.10
2639;DHT22;1329;51.384;7.122;2023-09-12T06:57:03;21.50;90.90
2639;DHT22;1329;51.384;7.122;2023-09-12T06:59:33;21.50;94.70
2639;DHT22;1329;51.384;7.122;2023-09-12T07:02:01;21.50;96.10
2639;DHT22;1329;51.384;7.122;2023-09-12T07:04:29;21.50;99.90
2639;DHT22;1329;51.384;7.122;2023-09-12T07:06:56;21.50;99.90
2639;DHT22;1329;51.384;7.122;2023-09-12T07:09:23;21.40;99.90
2639;DHT22;1329;51.384;7.122;2023-09-12T07:11:52;21.40;99.90
2639;DHT22;1329;51.384;7.122;2023-09-12T07:14:19;21.30;99.90
2639;DHT22;1329;51.384;7.122;2023-09-12T07:16:48;21.40;99.90
2639;DHT22;1329;51.384;7.122;2023-09-12T07:19:15;21.40;99.90
2639;DHT22;1329;51.384;7.122;2023-09-12T07:21:42;21.40;99.90
2639;DHT22;1329;51.384;7.122;2023-09-12T07:24:09;21.40;99.90
2639;DHT22;1329;51.384;7.122;2023-09-12T07:26:36;21.40;99.90
2639;DHT22;1329;51.384;7.122;2023-09-12T07:29:04;21.50;99.90
2639;DHT22;1329;51.384;7.122;2023-09-12T07:31:31;21.50;99.90
2639;DHT22;1329;51.384;7.122;2023-09-12T07:33:58;21.50;99.90
2639;DHT22;1329;51.384;7.122;2023-09-12T07:36:25;21.50;99.90
2639;DHT22;1329;51.384;7.122;2023-09-12T07:38:52;21.60;99.90
2639;DHT22;1329;51.384;7.122;2023-09-12T07:41:19;21.60;99.90
2639;DHT22;1329;51.384;7.122;2023-09-12T07:43:46;21.60;99.90
2639;DHT22;1329;51.384;7.122;2023-09-12T07:46:15;21.70;99.90
2639;DHT22;1329;51.384;7.122;2023-09-12T07:48:42;21.70;99.90
2639;DHT22;1329;51.384;7.122;2023-09-12T07:51:12;21.80;99.90
2639;DHT22;1329;51.384;7.122;2023-09-12T07:53:40;21.80;99.90
2639;DHT22;1329;51.384;7.122;2023-09-12T07:56:09;21.90;99.90
2639;DHT22;1329;51.384;7.122;2023-09-12T07:58:36;21.90;99.90
2639;DHT22;1329;51.384;7.122;2023-09-12T08:01:06;22.00;99.90
2639;DHT22;1329;51.384;7.122;2023-09-12T08:03:37;22.00;99.90
2639;DHT22;1329;51.384;7.122;2023-09-12T08:06:06;22.10;99.90
2639;DHT22;1329;51.384;7.122;2023-09-12T08:08:33;22.20;99.90
2639;DHT22;1329;51.384;7.122;2023-09-12T08:11:00;22.30;99.90
2639;DHT22;1329;51.384;7.122;2023-09-12T08:13:28;22.30;99.90
2639;DHT22;1329;51.384;7.122;2023-09-12T08:15:57;22.40;99.90
2639;DHT22;1329;51.384;7.122;2023-09-12T08:18:26;22.40;99.90
2639;DHT22;1329;51.384;7.122;2023-09-12T08:20:56;22.40;99.90
2639;DHT22;1329;51.384;7.122;2023-09-12T08:23:23;22.40;99.90
2639;DHT22;1329;51.384;7.122;2023-09-12T08:25:56;22.40;99.90
2639;DHT22;1329;51.384;7.122;2023-09-12T08:28:23;22.40;99.90
2639;DHT22;1329;51.384;7.122;2023-09-12T08:30:52;22.40;99.90
2639;DHT22;1329;51.384;7.122;2023-09-12T08:33:19;22.30;99.90
2639;DHT22;1329;51.384;7.122;2023-09-12T08:35:46;22.40;99.90
2639;DHT22;1329;51.384;7.122;2023-09-12T08:38:15;22.40;99.90
2639;DHT22;1329;51.384;7.122;2023-09-12T08:40:48;22.40;99.90
2639;DHT22;1329;51.384;7.122;2023-09-12T08:43:16;22.40;99.90
2639;DHT22;1329;51.384;7.122;2023-09-12T08:45:43;22.50;99.90
2639;DHT22;1329;51.384;7.122;2023-09-12T08:48:11;22.40;99.90
2639;DHT22;1329;51.384;7.122;2023-09-12T08:50:38;22.50;99.90
2639;DHT22;1329;51.384;7.122;2023-09-12T08:53:06;22.50;99.90
2639;DHT22;1329;51.384;7.122;2023-09-12T08:55:35;22.50;99.90
2639;DHT22;1329;51.384;7.122;2023-09-12T08:58:04;22.50;99.90
2639;DHT22;1329;51.384;7.122;2023-09-12T09:00:32;22.50;99.90
2639;DHT22;1329;51.384;7.122;2023-09-12T09:02:59;22.50;99.90
2639;DHT22;1329;51.384;7.122;2023-09-12T09:05:28;22.60;99.90
2639;DHT22;1329;51.384;7.122;2023-09-12T09:07:56;22.50;99.90
2639;DHT22;1329;51.384;7.122;2023-09-12T09:10:24;22.50;99.90
2639;DHT22;1329;51.384;7.122;2023-09-12T09:12:53;22.50;99.90
2639;DHT22;1329;51.384;7.122;2023-09-12T09:15:22;22.50;99.90
2639;DHT22;1329;51.384;7.122;2023-09-12T09:17:54;22.60;99.90
2639;DHT22;1329;51.384;7.122;2023-09-12T09:20:24;22.60;99.90
2639;DHT22;1329;51.384;7.122;2023-09-12T09:23:00;22.60;99.90
2639;DHT22;1329;51.384;7.122;2023-09-12T09:25:31;22.60;99.90
2639;DHT22;1329;51.384;7.122;2023-09-12T09:28:02;22.70;99.90
2639;DHT22;1329;51.384;7.122;2023-09-12T09:30:41;22.70;99.90
2639;DHT22;1329;51.384;7.122;2023-09-12T09:33:10;22.70;99.90
2639;DHT22;1329;51.384;7.122;2023-09-12T09:35:37;22.70;99.90
2639;DHT22;1329;51.384;7.122;2023-09-12T09:38:06;22.70;99.90
2639;DHT22;1329;51.384;7.122;2023-09-12T09:40:35;22.70;99.90
2639;DHT22;1329;51.384;7.122;2023-09-12T09:43:04;22.80;99.90
2639;DHT22;1329;51.384;7.122;2023-09-12T09:45:31;22.80;99.90
2639;DHT22;1329;51.384;7.122;2023-09-12T09:48:03;22.80;99.90
2639;DHT22;1329;51.384;7.122;2023-09-12T09:50:33;22.90;99.90
2639;DHT22;1329;51.384;7.122;2023-09-12T09:53:02;22.90;99.90
2639;DHT22;1329;51.384;7.122;2023-09-12T09:55:37;22.90;99.90
2639;DHT22;1329;51.384;7.122;2023-09-12T09:58:09;22.80;99.90
2639;DHT22;1329;51.384;7.122;2023-09-12T10:00:46;22.90;99.90
2639;DHT22;1329;51.384;7.122;2023-09-12T10:03:18;22.90;99.90
2639;DHT22;1329;51.384;7.122;2023-09-12T10:05:46;22.90;99.90
2639;DHT22;1329;51.384;7.122;2023-09-12T10:08:24;23.00;99.90
2639;DHT22;1329;51.384;7.122;2023-09-12T10:10:52;23.00;99.90
2639;DHT22;1329;51.384;7.122;2023-09-12T10:13:21;23.10;99.90
2639;DHT22;1329;51.384;7.122;2023-09-12T10:15:54;23.20;99.90
2639;DHT22;1329;51.384;7.122;2023-09-12T10:18:23;23.20;99.90
2639;DHT22;1329;51.384;7.122;2023-09-12T10:20:54;23.30;99.90
2639;DHT22;1329;51.384;7.122;2023-09-12T10:23:37;23.30;99.90
2639;DHT22;1329;51.384;7.122;2023-09-12T10:26:11;23.40;99.90
2639;DHT22;1329;51.384;7.122;2023-09-12T10:28:41;23.40;99.90
2639;DHT22;1329;51.384;7.122;2023-09-12T10:31:09;23.40;99.90
2639;DHT22;1329;51.384;7.122;2023-09-12T10:33:39;23.40;99.90
2639;DHT22;1329;51.384;7.122;2023-09-12T10:36:08;23.40;99.90
2639;DHT22;1329;51.384;7.122;2023-09-12T10:38:40;23.40;99.90
2639;DHT22;1329;51.384;7.122;2023-09-12T10:41:11;23.40;99.90
2639;DHT22;1329;51.384;7.122;2023-09-12T10:43:42;23.30;99.90
2639;DHT22;1329;51.384;7.122;2023-09-12T10:46:12;23.30;99.90
2639;DHT22;1329;51.384;7.122;2023-09-12T10:48:39;23.30;99.90
2639;DHT22;1329;51.384;7.122;2023-09-12T10:51:07;23.30;99.90
2639;DHT22;1329;51.384;7.122;2023-09-12T10:53:37;23.40;99.90
2639;DHT22;1329;51.384;7.122;2023-09-12T10:56:16;23.50;99.90
2639;DHT22;1329;51.384;7.122;2023-09-12T10:59:14;23.50;99.90
2639;DHT22;1329;51.384;7.122;2023-09-12T11:01:42;23.60;99.90
2639;DHT22;1329;51.384;7.122;2023-09-12T11:04:32;23.70;99.90
2639;DHT22;1329;51.384;7.122;2023-09-12T11:07:30;23.80;99.90
2639;DHT22;1329;51.384;7.122;2023-09-12T11:10:21;23.90;99.90
2639;DHT22;1329;51.384;7.122;2023-09-12T11:12:51;24.00;99.90
2639;DHT22;1329;51.384;7.122;2023-09-12T11:15:22;24.00;99.90
2639;DHT22;1329;51.384;7.122;2023-09-12T11:17:59;24.00;99.90
2639;DHT22;1329;51.384;7.122;2023-09-12T11:20:51;24.10;99.90
2639;DHT22;1329;51.384;7.122;2023-09-12T11:23:19;24.10;99.90
2639;DHT22;1329;51.384;7.122;2023-09-12T11:25:47;24.10;99.90
2639;DHT22;1329;51.384;7.122;2023-09-12T11:28:14;24.20;99.90
2639;DHT22;1329;51.384;7.122;2023-09-12T11:30:56;24.20;99.90
2639;DHT22;1329;51.384;7.122;2023-09-12T11:33:24;24.30;99.90
2639;DHT22;1329;51.384;7.122;2023-09-12T11:35:52;24.40;99.90
2639;DHT22;1329;51.384;7.122;2023-09-12T11:38:26;24.40;99.90
2639;DHT22;1329;51.384;7.122;2023-09-12T11:40:54;24.50;99.90
2639;DHT22;1329;51.384;7.122;2023-09-12T11:43:23;24.50;99.90
2639;DHT22;1329;51.384;7.122;2023-09-12T11:45:51;24.60;99.90
2639;DHT22;1329;51.384;7.122;2023-09-12T11:48:20;24.60;99.90
2639;DHT22;1329;51.384;7.122;2023-09-12T11:50:52;24.70;99.90
2639;DHT22;1329;51.384;7.122;2023-09-12T11:53:21;24.80;99.90
2639;DHT22;1329;51.384;7.122;2023-09-12T11:55:53;24.80;99.90
2639;DHT22;1329;51.384;7.122;2023-09-12T11:58:21;24.80;99.90
2639;DHT22;1329;51.384;7.122;2023-09-12T12:00:49;24.90;99.90
2639;DHT22;1329;51.384;7.122;2023-09-12T12:03:20;24.90;99.90
2639;DHT22;1329;51.384;7.122;2023-09-12T12:05:48;25.00;99.90
2639;DHT22;1329;51.384;7.122;2023-09-12T12:08:18;25.00;99.90
2639;DHT22;1329;51.384;7.122;2023-09-12T12:10:49;25.00;99.90
2639;DHT22;1329;51.384;7.122;2023-09-12T12:13:17;25.10;99.90
2639;DHT22;1329;51.384;7.122;2023-09-12T12:15:44;25.10;99.90
2639;DHT22;1329;51.384;7.122;2023-09-12T12:18:11;25.00;99.90
2639;DHT22;1329;51.384;7.122;2023-09-12T12:20:40;25.00;99.90
2639;DHT22;1329;51.384;7.122;2023-09-12T12:23:07;25.00;99.90
2639;DHT22;1329;51.384;7.122;2023-09-12T12:25:34;25.00;99.90
2639;DHT22;1329;51.384;7.122;2023-09-12T12:28:02;25.00;99.90
2639;DHT22;1329;51.384;7.122;2023-09-12T12:30:31;25.10;99.90
2639;DHT22;1329;51.384;7.122;2023-09-12T12:33:01;25.10;99.90
2639;DHT22;1329;51.384;7.122;2023-09-12T12:35:28;25.10;99.90
2639;DHT22;1329;51.384;7.122;2023-09-12T12:37:57;25.20;99.90
2639;DHT22;1329;51.384;7.122;2023-09-12T12:40:24;25.20;99.90
2639;DHT22;1329;51.384;7.122;2023-09-12T12:42:51;25.20;99.90
2639;DHT22;1329;51.384;7.122;2023-09-12T12:45:20;25.30;99.90
2639;DHT22;1329;51.384;7.122;2023-09-12T12:47:51;25.30;99.90
2639;DHT22;1329;51.384;7.122;2023-09-12T12:50:24;25.40;99.90
2639;DHT22;1329;51.384;7.122;2023-09-12T12:52:50;25.40;99.90
2639;DHT22;1329;51.384;7.122;2023-09-12T12:55:21;25.40;99.90
2639;DHT22;1329;51.384;7.122;2023-09-12T12:57:48;25.40;99.90
2639;DHT22;1329;51.384;7.122;2023-09-12T13:00:16;25.40;99.90
2639;DHT22;1329;51.384;7.122;2023-09-12T13:02:45;25.50;99.90
2639;DHT22;1329;51.384;7.122;2023-09-12T13:05:25;25.50;99.90
2639;DHT22;1329;51.384;7.122;2023-09-12T13:07:54;25.60;99.90
2639;DHT22;1329;51.384;7.122;2023-09-12T13:10:23;25.60;99.90
2639;DHT22;1329;51.384;7.122;2023-09-12T13:12:50;25.70;99.90
2639;DHT22;1329;51.384;7.122;2023-09-12T13:15:17;25.70;99.90
2639;DHT22;1329;51.384;7.122;2023-09-12T13:17:45;25.80;99.90
2639;DHT22;1329;51.384;7.122;2023-09-12T13:20:17;25.70;99.90
2639;DHT22;1329;51.384;7.122;2023-09-12T13:22:44;25.80;99.90
2639;DHT22;1329;51.384;7.122;2023-09-12T13:25:11;25.90;99.90
2639;DHT22;1329;51.384;7.122;2023-09-12T13:27:41;25.90;99.90
2639;DHT22;1329;51.384;7.122;2023-09-12T13:30:13;26.10;99.90
2639;DHT22;1329;51.384;7.122;2023-09-12T13:32:40;26.20;99.90
2639;DHT22;1329;51.384;7.122;2023-09-12T13:35:07;26.20;99.90
2639;DHT22;1329;51.384;7.122;2023-09-12T13:37:34;26.30;99.90
2639;DHT22;1329;51.384;7.122;2023-09-12T13:40:01;26.40;99.90
2639;DHT22;1329;51.384;7.122;2023-09-12T13:42:28;26.50;99.90
2639;DHT22;1329;51.384;7.122;2023-09-12T13:44:58;26.60;99.90
2639;DHT22;1329;51.384;7.122;2023-09-12T13:47:25;26.60;99.90
2639;DHT22;1329;51.384;7.122;2023-09-12T13:49:52;26.70;99.90
2639;DHT22;1329;51.384;7.122;2023-09-12T13:52:19;26.80;99.90
2639;DHT22;1329;51.384;7.122;2023-09-12T13:54:46;26.90;99.90
2639;DHT22;1329;51.384;7.122;2023-09-12T13:57:15;26.90;99.90
2639;DHT22;1329;51.384;7.122;2023-09-12T13:59:43;27.00;99.90
2639;DHT22;1329;51.384;7.122;2023-09-12T14:02:11;27.10;99.90
2639;DHT22;1329;51.384;7.122;2023-09-12T14:04:38;27.20;99.90
2639;DHT22;1329;51.384;7.122;2023-09-12T14:07:05;27.30;99.90
2639;DHT22;1329;51.384;7.122;2023-09-12T14:09:35;27.40;99.90
2639;DHT22;1329;51.384;7.122;2023-09-12T14:12:06;27.40;99.90
2639;DHT22;1329;51.384;7.122;2023-09-12T14:14:33;27.40;99.90
2639;DHT22;1329;51.384;7.122;2023-09-12T14:17:00;27.40;99.90
2639;DHT22;1329;51.384;7.122;2023-09-12T14:19:29;27.20;99.90
2639;DHT22;1329;51.384;7.122;2023-09-12T14:21:57;27.10;99.90
2639;DHT22;1329;51.384;7.122;2023-09-12T14:24:23;27.00;93.10
2639;DHT22;1329;51.384;7.122;2023-09-12T14:26:51;26.80;91.30
2639;DHT22;1329;51.384;7.122;2023-09-12T14:29:24;26.70;92.70
2639;DHT22;1329;51.384;7.122;2023-09-12T14:31:57;26.60;85.90
2639;DHT22;1329;51.384;7.122;2023-09-12T14:34:25;26.60;98.30
2639;DHT22;1329;51.384;7.122;2023-09-12T14:36:57;26.60;96.90
2639;DHT22;1329;51.384;7.122;2023-09-12T14:39:29;26.60;85.30
2639;DHT22;1329;51.384;7.122;2023-09-12T14:42:16;26.60;95.30
2639;DHT22;1329;51.384;7.122;2023-09-12T14:44:50;26.60;93.40
2639;DHT22;1329;51.384;7.122;2023-09-12T14:47:17;26.60;67.80
2639;DHT22;1329;51.384;7.122;2023-09-12T14:49:48;26.60;90.90
2639;DHT22;1329;51.384;7.122;2023-09-12T14:52:17;26.60;82.10
2639;DHT22;1329;51.384;7.122;2023-09-12T14:54:49;26.60;90.00
2639;DHT22;1329;51.384;7.122;2023-09-12T14:57:16;26.60;91.60
2639;DHT22;1329;51.384;7.122;2023-09-12T14:59:43;26.70;91.00
2639;DHT22;1329;51.384;7.122;2023-09-12T15:02:12;26.80;85.20
2639;DHT22;1329;51.384;7.122;2023-09-12T15:04:39;26.90;87.60
2639;DHT22;1329;51.384;7.122;2023-09-12T15:07:06;26.90;87.40
2639;DHT22;1329;51.384;7.122;2023-09-12T15:09:37;26.90;82.20
2639;DHT22;1329;51.384;7.122;2023-09-12T15:12:05;26.90;70.60
2639;DHT22;1329;51.384;7.122;2023-09-12T15:14:34;26.90;71.50
2639;DHT22;1329;51.384;7.122;2023-09-12T15:17:01;26.90;69.40
2639;DHT22;1329;51.384;7.122;2023-09-12T15:19:28;26.90;66.80
2639;DHT22;1329;51.384;7.122;2023-09-12T15:21:55;26.90;70.00
2639;DHT22;1329;51.384;7.122;2023-09-12T15:24:22;27.00;68.50
2639;DHT22;1329;51.384;7.122;2023-09-12T15:26:50;27.00;63.20
2639;DHT22;1329;51.384;7.122;2023-09-12T15:29:17;27.00;53.80
2639;DHT22;1329;51.384;7.122;2023-09-12T15:31:44;27.00;56.60
2639;DHT22;1329;51.384;7.122;2023-09-12T15:34:11;27.00;52.90
2639;DHT22;1329;51.384;7.122;2023-09-12T15:36:41;26.90;49.80
2639;DHT22;1329;51.384;7.122;2023-09-12T15:39:10;26.90;38.20
2639;DHT22;1329;51.384;7.122;2023-09-12T15:41:37;26.90;58.90
2639;DHT22;1329;51.384;7.122;2023-09-12T15:44:06;26.90;52.90
2639;DHT22;1329;51.384;7.122;2023-09-12T15:46:33;26.90;28.60
2639;DHT22;1329;51.384;7.122;2023-09-12T15:49:04;26.90;39.60
2639;DHT22;1329;51.384;7.122;2023-09-12T15:51:33;26.90;23.50
2639;DHT22;1329;51.384;7.122;2023-09-12T15:54:00;26.80;43.80
2639;DHT22;1329;51.384;7.122;2023-09-12T15:56:27;26.80;39.70
2639;DHT22;1329;51.384;7.122;2023-09-12T15:58:54;26.70;40.00
2639;DHT22;1329;51.384;7.122;2023-09-12T16:01:24;26.70;36.50
2639;DHT22;1329;51.384;7.122;2023-09-12T16:03:52;26.60;29.20
2639;DHT22;1329;51.384;7.122;2023-09-12T16:06:19;26.50;35.10
2639;DHT22;1329;51.384;7.122;2023-09-12T16:08:49;26.50;44.00
2639;DHT22;1329;51.384;7.122;2023-09-12T16:11:16;26.50;45.40
2639;DHT22;1329;51.384;7.122;2023-09-12T16:13:44;26.50;50.20
2639;DHT22;1329;51.384;7.122;2023-09-12T16:16:11;26.50;45.10
2639;DHT22;1329;51.384;7.122;2023-09-12T16:18:40;26.50;44.10